createdAt,value
2018-06-25T00:00:06.075Z,89.62
2018-06-25T00:01:16.216Z,89.62
2018-06-25T00:02:26.364Z,89.72
2018-06-25T00:03:36.529Z,89.72
2018-06-25T00:04:46.681Z,89.81
2018-06-25T00:05:56.867Z,89.53
2018-06-25T00:07:07.029Z,89.72
2018-06-25T00:08:17.234Z,89.81
2018-06-25T00:09:27.435Z,89.62
2018-06-25T00:10:37.567Z,89.62
2018-06-25T00:11:47.747Z,89.72
2018-06-25T00:12:57.890Z,90.1
2018-06-25T00:14:08.051Z,90.2
2018-06-25T00:15:17.826Z,90.1
2018-06-25T00:16:28.085Z,90.01
2018-06-25T00:17:38.234Z,90.2
2018-06-25T00:18:48.145Z,90.2
2018-06-25T00:19:58.020Z,90.2
2018-06-25T00:21:08.221Z,90.3
2018-06-25T00:22:18.244Z,90.3
2018-06-25T00:23:28.401Z,90.01
2018-06-25T00:24:38.588Z,90.58
2018-06-25T00:25:48.762Z,90.2
2018-06-25T00:26:59.001Z,90.1
2018-06-25T00:28:09.172Z,90.39
2018-06-25T00:29:19.427Z,90.2
2018-06-25T00:30:29.639Z,90.3
2018-06-25T00:31:39.859Z,89.91
2018-06-25T00:32:50.025Z,90.2
2018-06-25T00:34:00.477Z,90.67
2018-06-25T00:35:10.606Z,90.48
2018-06-25T00:36:20.814Z,90.58
2018-06-25T00:37:30.955Z,90.2
2018-06-25T00:38:41.089Z,90.39
2018-06-25T00:39:51.613Z,90.48
2018-06-25T00:41:01.951Z,90.39
2018-06-25T00:42:12.128Z,90.3
2018-06-25T00:43:22.261Z,90.3
2018-06-25T00:44:32.414Z,90.39
2018-06-25T00:45:42.393Z,90.3
2018-06-25T00:46:52.686Z,89.91
2018-06-25T00:48:02.828Z,90.58
2018-06-25T00:49:13.064Z,89.91
2018-06-25T00:50:23.381Z,90.48
2018-06-25T00:51:33.724Z,90.58
2018-06-25T00:52:43.968Z,90.16
2018-06-25T00:53:54.306Z,90.2
2018-06-25T00:55:04.471Z,90.2
2018-06-25T00:56:14.623Z,90.16
2018-06-25T00:57:24.738Z,89.96
2018-06-25T00:58:35.091Z,90.53
2018-06-25T00:59:45.254Z,90.34
2018-06-25T01:00:55.454Z,90.25
2018-06-25T01:02:05.728Z,90.34
2018-06-25T01:03:15.602Z,90.34
2018-06-25T01:04:25.789Z,90.34
2018-06-25T01:05:35.970Z,90.44
2018-06-25T01:06:46.127Z,90.53
2018-06-25T01:07:56.432Z,90.73
2018-06-25T01:09:06.600Z,90.73
2018-06-25T01:10:16.786Z,90.82
2018-06-25T01:11:26.934Z,90.53
2018-06-25T01:12:37.089Z,90.63
2018-06-25T01:13:47.244Z,90.34
2018-06-25T01:14:57.409Z,90.73
2018-06-25T01:16:07.674Z,90.53
2018-06-25T01:17:17.829Z,90.73
2018-06-25T01:18:27.997Z,90.16
2018-06-25T01:19:38.173Z,90.34
2018-06-25T01:20:48.297Z,90.73
2018-06-25T01:21:58.680Z,90.34
2018-06-25T01:23:08.830Z,90.34
2018-06-25T01:24:18.967Z,90.34
2018-06-25T01:25:28.484Z,90.34
2018-06-25T01:26:38.786Z,90.16
2018-06-25T01:27:49.120Z,90.25
2018-06-25T01:28:59.310Z,90.34
2018-06-25T01:30:09.079Z,90.44
2018-06-25T01:31:18.955Z,90.53
2018-06-25T01:32:29.096Z,90.34
2018-06-25T01:33:39.258Z,90.25
2018-06-25T01:34:49.494Z,90.25
2018-06-25T01:35:59.636Z,90.16
2018-06-25T01:37:09.768Z,90.34
2018-06-25T01:38:19.346Z,90.34
2018-06-25T01:39:29.531Z,90.34
2018-06-25T01:40:39.780Z,90.63
2018-06-25T01:41:49.920Z,90.53
2018-06-25T01:43:00.163Z,90.63
2018-06-25T01:44:10.325Z,91.02
2018-06-25T01:45:20.646Z,90.53
2018-06-25T01:46:30.803Z,89.96
2018-06-25T01:47:40.976Z,90.58
2018-06-25T01:48:51.125Z,90.82
2018-06-25T01:50:01.355Z,90.82
2018-06-25T01:51:11.499Z,90.82
2018-06-25T01:52:21.391Z,90.16
2018-06-25T01:53:31.520Z,90.25
2018-06-25T01:54:41.429Z,90.48
2018-06-25T01:55:51.807Z,90.48
2018-06-25T01:57:02.012Z,90.3
2018-06-25T01:58:12.150Z,90.48
2018-06-25T01:59:22.254Z,90.53
2018-06-25T02:00:32.482Z,90.16
2018-06-25T02:01:42.647Z,90.63
2018-06-25T02:02:52.803Z,90.53
2018-06-25T02:04:02.992Z,90.3
2018-06-25T02:05:13.123Z,90.3
2018-06-25T02:06:23.531Z,90.87
2018-06-25T02:07:33.672Z,90.53
2018-06-25T02:08:43.826Z,90.82
2018-06-25T02:09:54.037Z,90.34
2018-06-25T02:11:04.197Z,90.39
2018-06-25T02:12:14.103Z,90.16
2018-06-25T02:13:24.272Z,90.2
2018-06-25T02:14:34.499Z,90.39
2018-06-25T02:15:44.507Z,90.3
2018-06-25T02:16:54.649Z,90.16
2018-06-25T02:18:04.770Z,90.39
2018-06-25T02:19:14.966Z,90.44
2018-06-25T02:20:25.118Z,90.44
2018-06-25T02:21:35.306Z,90.82
2018-06-25T02:22:45.566Z,90.39
2018-06-25T02:23:55.700Z,90.82
2018-06-25T02:25:05.836Z,90.73
2018-06-25T02:26:15.947Z,90.82
2018-06-25T02:27:25.867Z,90.34
2018-06-25T02:28:36.226Z,90.53
2018-06-25T02:29:46.405Z,90.73
2018-06-25T02:30:56.619Z,90.16
2018-06-25T02:32:06.904Z,90.53
2018-06-25T02:33:17.092Z,91.11
2018-06-25T02:34:27.297Z,91.2
2018-06-25T02:35:37.164Z,91.2
2018-06-25T02:36:47.333Z,91.2
2018-06-25T02:37:57.101Z,90.92
2018-06-25T02:39:06.993Z,91.02
2018-06-25T02:40:16.621Z,90.92
2018-06-25T02:41:26.234Z,90.73
2018-06-25T02:42:36.414Z,91.02
2018-06-25T02:43:46.576Z,90.92
2018-06-25T02:44:56.858Z,90.82
2018-06-25T02:46:07.043Z,90.92
2018-06-25T02:47:17.177Z,90.92
2018-06-25T02:48:27.373Z,90.73
2018-06-25T02:49:37.503Z,91.02
2018-06-25T02:50:47.427Z,90.92
2018-06-25T02:51:57.619Z,91.02
2018-06-25T02:53:07.996Z,91.11
2018-06-25T02:54:18.232Z,91.2
2018-06-25T02:55:28.419Z,91.2
2018-06-25T02:56:38.618Z,90.63
2018-06-25T02:57:48.865Z,91.39
2018-06-25T02:58:59.221Z,91.3
2018-06-25T03:00:09.674Z,91.2
2018-06-25T03:01:19.854Z,91.2
2018-06-25T03:02:30.152Z,91.2
2018-06-25T03:03:40.473Z,91.2
2018-06-25T03:04:50.609Z,91.2
2018-06-25T03:06:00.995Z,91.2
2018-06-25T03:07:11.172Z,91.39
2018-06-25T03:08:21.053Z,91.49
2018-06-25T03:09:31.197Z,91.97
2018-06-25T03:10:41.374Z,91.88
2018-06-25T03:11:51.787Z,91.68
2018-06-25T03:13:01.928Z,92.07
2018-06-25T03:14:12.078Z,91.88
2018-06-25T03:15:22.231Z,91.97
2018-06-25T03:16:32.379Z,91.97
2018-06-25T03:17:42.687Z,91.78
2018-06-25T03:18:52.894Z,91.59
2018-06-25T03:20:03.097Z,92.07
2018-06-25T03:21:13.243Z,91.78
2018-06-25T03:22:23.386Z,91.88
2018-06-25T03:23:33.594Z,92.07
2018-06-25T03:24:43.909Z,91.88
2018-06-25T03:25:54.173Z,92.45
2018-06-25T03:27:04.392Z,92.45
2018-06-25T03:28:14.635Z,92.07
2018-06-25T03:29:24.802Z,92.07
2018-06-25T03:30:34.700Z,92.35
2018-06-25T03:31:44.875Z,92.16
2018-06-25T03:32:55.033Z,91.88
2018-06-25T03:34:05.246Z,91.88
2018-06-25T03:35:15.391Z,91.97
2018-06-25T03:36:25.652Z,91.88
2018-06-25T03:37:35.847Z,92.07
2018-06-25T03:38:46.029Z,92.07
2018-06-25T03:39:56.165Z,92.25
2018-06-25T03:41:06.408Z,92.07
2018-06-25T03:42:16.564Z,92.45
2018-06-25T03:43:26.840Z,92.45
2018-06-25T03:44:37.179Z,92.07
2018-06-25T03:45:47.009Z,92.07
2018-06-25T03:46:56.906Z,92.25
2018-06-25T03:48:06.700Z,91.88
2018-06-25T03:49:16.838Z,92.25
2018-06-25T03:50:26.987Z,91.88
2018-06-25T03:51:36.875Z,92.25
2018-06-25T03:52:47.019Z,92.45
2018-06-25T03:53:57.161Z,92.25
2018-06-25T03:55:07.319Z,92.45
2018-06-25T03:56:17.510Z,92.07
2018-06-25T03:57:27.937Z,92.45
2018-06-25T03:58:38.077Z,92.07
2018-06-25T03:59:48.232Z,92.07
2018-06-25T04:00:58.435Z,92.16
2018-06-25T04:02:08.776Z,92.35
2018-06-25T04:03:18.932Z,91.88
2018-06-25T04:04:29.056Z,91.97
2018-06-25T04:05:39.466Z,92.16
2018-06-25T04:06:49.328Z,92.07
2018-06-25T04:07:59.620Z,92.07
2018-06-25T04:09:09.790Z,91.88
2018-06-25T04:10:19.926Z,91.88
2018-06-25T04:11:30.067Z,91.78
2018-06-25T04:12:39.874Z,91.88
2018-06-25T04:13:50.213Z,91.59
2018-06-25T04:15:00.590Z,91.59
2018-06-25T04:16:10.799Z,91.68
2018-06-25T04:17:20.753Z,91.88
2018-06-25T04:18:30.627Z,91.68
2018-06-25T04:19:40.792Z,91.59
2018-06-25T04:20:51.022Z,91.2
2018-06-25T04:22:01.183Z,91.11
2018-06-25T04:23:11.438Z,91.11
2018-06-25T04:24:21.214Z,91.39
2018-06-25T04:25:31.516Z,91.49
2018-06-25T04:26:41.706Z,91.11
2018-06-25T04:27:51.972Z,91.49
2018-06-25T04:29:01.862Z,91.11
2018-06-25T04:30:11.985Z,90.82
2018-06-25T04:31:22.194Z,90.77
2018-06-25T04:32:32.351Z,91.2
2018-06-25T04:33:42.517Z,90.96
2018-06-25T04:34:52.682Z,91.16
2018-06-25T04:36:02.817Z,90.58
2018-06-25T04:37:12.507Z,90.96
2018-06-25T04:38:22.639Z,90.3
2018-06-25T04:39:32.779Z,90.3
2018-06-25T04:40:42.959Z,90.01
2018-06-25T04:41:53.844Z,90.39
2018-06-25T04:43:04.330Z,90.3
2018-06-25T04:44:14.500Z,90.1
2018-06-25T04:45:24.698Z,90.1
2018-06-25T04:46:34.911Z,89.53
2018-06-25T04:47:44.897Z,89.53
2018-06-25T04:48:55.090Z,89.53
2018-06-25T04:50:04.990Z,89.34
2018-06-25T04:51:15.129Z,89.53
2018-06-25T04:52:25.266Z,89.05
2018-06-25T04:53:35.488Z,89.29
2018-06-25T04:54:45.656Z,89.48
2018-06-25T04:55:55.880Z,89.29
2018-06-25T04:57:06.136Z,88.81
2018-06-25T04:58:16.300Z,88.33
2018-06-25T04:59:26.500Z,88.52
2018-06-25T05:00:36.638Z,88.62
2018-06-25T05:01:46.798Z,87.95
2018-06-25T05:02:56.956Z,88.43
2018-06-25T05:04:07.440Z,88.23
2018-06-25T05:05:17.737Z,88.04
2018-06-25T05:06:27.901Z,88.52
2018-06-25T05:07:38.170Z,88.43
2018-06-25T05:08:48.370Z,88.23
2018-06-25T05:09:58.782Z,88.9
2018-06-25T05:11:08.937Z,88.33
2018-06-25T05:12:19.113Z,87.95
2018-06-25T05:13:29.262Z,88.13
2018-06-25T05:14:39.134Z,88.23
2018-06-25T05:15:49.282Z,88.23
2018-06-25T05:16:59.420Z,88.23
2018-06-25T05:18:09.632Z,88.04
2018-06-25T05:19:19.827Z,87.99
2018-06-25T05:20:29.480Z,87.47
2018-06-25T05:21:39.698Z,87.8
2018-06-25T05:22:50.136Z,87.76
2018-06-25T05:24:00.293Z,87.37
2018-06-25T05:25:10.206Z,87.8
2018-06-25T05:26:20.455Z,86.99
2018-06-25T05:27:30.866Z,87.41
2018-06-25T05:28:41.048Z,87.03
2018-06-25T05:29:51.312Z,87.03
2018-06-25T05:31:01.531Z,86.36
2018-06-25T05:32:11.879Z,86.74
2018-06-25T05:33:22.020Z,86.65
2018-06-25T05:34:32.204Z,86.74
2018-06-25T05:35:42.444Z,87.23
2018-06-25T05:36:52.585Z,86.65
2018-06-25T05:38:02.542Z,86.46
2018-06-25T05:39:12.737Z,86.17
2018-06-25T05:40:22.902Z,86.55
2018-06-25T05:41:33.067Z,86.36
2018-06-25T05:42:43.339Z,86.36
2018-06-25T05:43:53.481Z,85.98
2018-06-25T05:45:03.668Z,85.88
2018-06-25T05:46:13.868Z,85.98
2018-06-25T05:47:24.127Z,85.6
2018-06-25T05:48:34.419Z,85.54
2018-06-25T05:49:44.661Z,85.31
2018-06-25T05:50:54.905Z,85.45
2018-06-25T05:52:05.096Z,85.54
2018-06-25T05:53:15.472Z,84.88
2018-06-25T05:54:25.663Z,84.49
2018-06-25T05:55:35.453Z,84.68
2018-06-25T05:56:45.640Z,84.78
2018-06-25T05:57:55.793Z,83.82
2018-06-25T05:59:06.034Z,83.72
2018-06-25T06:00:16.201Z,83.82
2018-06-25T06:01:26.345Z,83.44
2018-06-25T06:02:36.594Z,84.01
2018-06-25T06:03:46.724Z,83.72
2018-06-25T06:04:56.867Z,83.53
2018-06-25T06:06:07.057Z,83.92
2018-06-25T06:07:17.230Z,83.92
2018-06-25T06:08:27.376Z,82.48
2018-06-25T06:09:37.511Z,80.94
2018-06-25T06:10:47.692Z,81.04
2018-06-25T06:11:57.615Z,80.18
2018-06-25T06:13:07.775Z,79.7
2018-06-25T06:14:17.925Z,78.45
2018-06-25T06:15:28.055Z,79.03
2018-06-25T06:16:38.294Z,78.84
2018-06-25T06:17:48.436Z,78.84
2018-06-25T06:18:58.599Z,79.13
2018-06-25T06:20:08.879Z,78.84
2018-06-25T06:21:19.039Z,78.36
2018-06-25T06:22:29.238Z,78.93
2018-06-25T06:23:39.400Z,79.22
2018-06-25T06:24:49.397Z,77.78
2018-06-25T06:25:59.422Z,77.97
2018-06-25T06:27:09.588Z,78.55
2018-06-25T06:28:19.719Z,78.64
2018-06-25T06:29:29.839Z,78.27
2018-06-25T06:30:40.016Z,77.92
2018-06-25T06:31:50.170Z,78.02
2018-06-25T06:33:00.434Z,78.11
2018-06-25T06:34:10.831Z,76.86
2018-06-25T06:35:21.071Z,76.96
2018-06-25T06:36:32.213Z,77.06
2018-06-25T06:37:42.336Z,76.96
2018-06-25T06:38:52.603Z,77.06
2018-06-25T06:40:02.884Z,76.77
2018-06-25T06:41:13.284Z,76.86
2018-06-25T06:42:23.654Z,76.96
2018-06-25T06:43:33.845Z,76.57
2018-06-25T06:44:44.097Z,76.86
2018-06-25T06:45:54.787Z,76.1
2018-06-25T06:47:04.978Z,76
2018-06-25T06:48:15.108Z,76.57
2018-06-25T06:49:25.263Z,76.39
2018-06-25T06:50:35.424Z,76.48
2018-06-25T06:51:45.585Z,76.48
2018-06-25T06:52:55.762Z,76.57
2018-06-25T06:54:05.635Z,75.81
2018-06-25T06:55:15.760Z,75.9
2018-06-25T06:56:25.913Z,76.1
2018-06-25T06:57:36.672Z,76.19
2018-06-25T06:58:47.116Z,75.85
2018-06-25T06:59:57.281Z,76.42
2018-06-25T07:01:07.429Z,76.23
2018-06-25T07:02:17.583Z,76.04
2018-06-25T07:03:27.826Z,76.23
2018-06-25T07:04:37.873Z,75.85
2018-06-25T07:05:48.221Z,75.27
2018-06-25T07:06:58.400Z,75.56
2018-06-25T07:08:08.540Z,75.6
2018-06-25T07:09:18.756Z,75.4
2018-06-25T07:10:28.633Z,74.64
2018-06-25T07:11:38.834Z,74.93
2018-06-25T07:12:49.205Z,74.93
2018-06-25T07:13:59.405Z,74.26
2018-06-25T07:15:09.569Z,74.35
2018-06-25T07:16:20.693Z,73.87
2018-06-25T07:17:30.828Z,73.58
2018-06-25T07:18:40.982Z,73.2
2018-06-25T07:19:51.175Z,74.16
2018-06-25T07:21:01.360Z,73.97
2018-06-25T07:22:11.409Z,73.77
2018-06-25T07:23:21.603Z,74.06
2018-06-25T07:24:31.762Z,73
2018-06-25T07:25:41.960Z,73.58
2018-06-25T07:26:51.845Z,74.16
2018-06-25T07:28:01.971Z,74.44
2018-06-25T07:29:12.232Z,73.77
2018-06-25T07:30:22.926Z,73.49
2018-06-25T07:31:33.079Z,73.3
2018-06-25T07:32:43.293Z,73.2
2018-06-25T07:33:53.514Z,73.87
2018-06-25T07:35:03.735Z,73.58
2018-06-25T07:36:13.561Z,73.97
2018-06-25T07:37:23.743Z,73.77
2018-06-25T07:38:33.925Z,73
2018-06-25T07:39:43.716Z,71.76
2018-06-25T07:40:54.112Z,72.14
2018-06-25T07:42:04.301Z,72.14
2018-06-25T07:43:14.731Z,72.14
2018-06-25T07:44:24.927Z,71.86
2018-06-25T07:45:35.124Z,71.57
2018-06-25T07:46:45.284Z,71.76
2018-06-25T07:47:55.465Z,71.41
2018-06-25T07:49:05.632Z,71.31
2018-06-25T07:50:15.817Z,71.31
2018-06-25T07:51:26.017Z,71.7
2018-06-25T07:52:36.196Z,71.8
2018-06-25T07:53:46.353Z,72.08
2018-06-25T07:54:56.520Z,71.98
2018-06-25T07:56:06.886Z,71.8
2018-06-25T07:57:17.037Z,71.98
2018-06-25T07:58:27.205Z,72.08
2018-06-25T07:59:37.529Z,71.7
2018-06-25T08:00:47.705Z,71.61
2018-06-25T08:01:57.864Z,71.98
2018-06-25T08:03:08.040Z,71.61
2018-06-25T08:04:18.203Z,71.8
2018-06-25T08:05:28.131Z,72.08
2018-06-25T08:06:38.495Z,71.73
2018-06-25T08:07:49.086Z,71.45
2018-06-25T08:08:59.231Z,71.06
2018-06-25T08:10:09.483Z,70.39
2018-06-25T08:11:20.045Z,70.78
2018-06-25T08:12:30.323Z,70.81
2018-06-25T08:13:40.722Z,70.81
2018-06-25T08:14:50.889Z,70.04
2018-06-25T08:16:01.054Z,70.14
2018-06-25T08:17:11.203Z,69.75
2018-06-25T08:18:21.123Z,69.56
2018-06-25T08:19:31.304Z,69.46
2018-06-25T08:20:41.497Z,69.27
2018-06-25T08:21:51.683Z,68.89
2018-06-25T08:23:02.045Z,69.08
2018-06-25T08:24:12.423Z,68.89
2018-06-25T08:25:22.670Z,68.76
2018-06-25T08:26:32.546Z,68.89
2018-06-25T08:27:42.717Z,69.34
2018-06-25T08:28:52.904Z,69.46
2018-06-25T08:30:03.265Z,68.89
2018-06-25T08:31:13.714Z,68.73
2018-06-25T08:32:23.884Z,68.44
2018-06-25T08:33:34.056Z,68.06
2018-06-25T08:34:44.323Z,68.15
2018-06-25T08:35:54.562Z,65.94
2018-06-25T08:37:04.854Z,65.17
2018-06-25T08:38:15.258Z,65.37
2018-06-25T08:39:25.430Z,65.46
2018-06-25T08:40:35.597Z,66.04
2018-06-25T08:41:45.723Z,66.36
2018-06-25T08:42:55.977Z,66.61
2018-06-25T08:44:06.398Z,66.74
2018-06-25T08:45:16.773Z,66.17
2018-06-25T08:46:26.912Z,66.07
2018-06-25T08:47:37.064Z,65.43
2018-06-25T08:48:47.255Z,64.86
2018-06-25T08:49:57.443Z,65.24
2018-06-25T08:51:07.627Z,65.08
2018-06-25T08:52:17.767Z,64.79
2018-06-25T08:53:27.959Z,64.92
2018-06-25T08:54:38.203Z,64.25
2018-06-25T08:55:48.219Z,61.83
2018-06-25T08:56:58.467Z,61.96
2018-06-25T08:58:08.720Z,60.71
2018-06-25T08:59:19.106Z,59
2018-06-25T09:00:29.276Z,58.62
2018-06-25T09:01:39.181Z,57.39
2018-06-25T09:02:49.387Z,59.32
2018-06-25T09:03:59.584Z,60.1
2018-06-25T09:05:09.879Z,59.52
2018-06-25T09:06:20.331Z,59.32
2018-06-25T09:07:30.493Z,58.72
2018-06-25T09:08:40.666Z,58.62
2018-06-25T09:09:50.870Z,59.75
2018-06-25T09:11:02.081Z,60.42
2018-06-25T09:12:12.275Z,60.61
2018-06-25T09:13:22.434Z,60.71
2018-06-25T09:14:32.581Z,60.13
2018-06-25T09:15:42.772Z,60.68
2018-06-25T09:16:54.142Z,59.16
2018-06-25T09:18:04.340Z,58.83
2018-06-25T09:19:14.526Z,57.7
2018-06-25T09:20:24.690Z,56.98
2018-06-25T09:21:34.842Z,56.7
2018-06-25T09:22:45.094Z,56.57
2018-06-25T09:23:55.289Z,55.99
2018-06-25T09:25:05.470Z,54.71
2018-06-25T09:26:15.685Z,53.64
2018-06-25T09:27:26.032Z,53.81
2018-06-25T09:28:36.379Z,54.82
2018-06-25T09:29:46.583Z,55.18
2018-06-25T09:30:56.742Z,55.36
2018-06-25T09:32:06.979Z,54.82
2018-06-25T09:33:17.177Z,53.59
2018-06-25T09:34:27.363Z,53.71
2018-06-25T09:35:37.528Z,51.59
2018-06-25T09:36:47.462Z,53.16
2018-06-25T09:37:57.621Z,53.47
2018-06-25T09:39:07.772Z,52.92
2018-06-25T09:40:17.954Z,51.1
2018-06-25T09:41:28.474Z,49.97
2018-06-25T09:42:39.971Z,49.12
2018-06-25T09:43:50.204Z,49.44
2018-06-25T09:45:00.468Z,49.27
2018-06-25T09:46:10.639Z,48.1
2018-06-25T09:47:20.809Z,48.8
2018-06-25T09:48:31.322Z,47.47
2018-06-25T09:49:41.600Z,48.15
2018-06-25T09:50:51.783Z,48.25
2018-06-25T09:52:01.976Z,47.47
2018-06-25T09:53:12.369Z,47.74
2018-06-25T09:54:22.524Z,48.3
2018-06-25T09:55:32.791Z,48.97
2018-06-25T09:56:42.984Z,48.66
2018-06-25T09:57:53.194Z,48.15
2018-06-25T09:59:03.104Z,48.25
2018-06-25T10:00:13.293Z,48.06
2018-06-25T10:01:23.461Z,48.25
2018-06-25T10:02:33.380Z,47.86
2018-06-25T10:03:43.893Z,48.9
2018-06-25T10:04:54.127Z,48.9
2018-06-25T10:06:04.014Z,48.49
2018-06-25T10:07:14.196Z,49
2018-06-25T10:08:24.445Z,48.81
2018-06-25T10:09:34.680Z,48.81
2018-06-25T10:10:44.923Z,48.15
2018-06-25T10:11:55.298Z,47.89
2018-06-25T10:13:05.625Z,47.33
2018-06-25T10:14:15.931Z,46.48
2018-06-25T10:15:26.158Z,45.62
2018-06-25T10:16:36.378Z,45.75
2018-06-25T10:17:46.593Z,45.26
2018-06-25T10:18:56.760Z,44.87
2018-06-25T10:20:06.933Z,45.18
2018-06-25T10:21:17.184Z,44.68
2018-06-25T10:22:27.562Z,44.78
2018-06-25T10:23:37.757Z,45.45
2018-06-25T10:24:47.937Z,45.36
2018-06-25T10:25:58.132Z,45.17
2018-06-25T10:27:08.059Z,45.07
2018-06-25T10:28:18.256Z,45.07
2018-06-25T10:29:28.518Z,43.61
2018-06-25T10:30:38.699Z,43.01
2018-06-25T10:31:48.857Z,42.91
2018-06-25T10:32:59.030Z,43.4
2018-06-25T10:34:09.209Z,44.37
2018-06-25T10:35:19.386Z,44.75
2018-06-25T10:36:29.578Z,44.54
2018-06-25T10:37:39.487Z,44.56
2018-06-25T10:38:49.665Z,44.56
2018-06-25T10:40:00.088Z,43.98
2018-06-25T10:41:10.246Z,43.3
2018-06-25T10:42:20.543Z,43.76
2018-06-25T10:43:31.204Z,44.15
2018-06-25T10:44:41.415Z,44.54
2018-06-25T10:45:51.808Z,44.83
2018-06-25T10:47:01.994Z,44.71
2018-06-25T10:48:12.342Z,44.81
2018-06-25T10:49:22.550Z,44.71
2018-06-25T10:50:32.704Z,45.07
2018-06-25T10:51:42.962Z,44.4
2018-06-25T10:52:53.162Z,45.56
2018-06-25T10:54:03.466Z,46.22
2018-06-25T10:55:13.659Z,46.31
2018-06-25T10:56:23.977Z,47.26
2018-06-25T10:57:34.141Z,47.16
2018-06-25T10:58:44.083Z,47.26
2018-06-25T10:59:54.611Z,46.48
2018-06-25T11:01:06.224Z,46.46
2018-06-25T11:02:16.854Z,46.84
2018-06-25T11:03:27.166Z,46.17
2018-06-25T11:04:37.404Z,46.97
2018-06-25T11:05:47.674Z,47.04
2018-06-25T11:06:57.693Z,47.14
2018-06-25T11:08:08.280Z,47.26
2018-06-25T11:09:18.460Z,47.26
2018-06-25T11:10:28.603Z,47.16
2018-06-25T11:11:38.768Z,47.26
2018-06-25T11:12:49.122Z,47.45
2018-06-25T11:13:59.828Z,46.6
2018-06-25T11:15:09.997Z,46.22
2018-06-25T11:16:19.932Z,46.41
2018-06-25T11:17:30.204Z,46.22
2018-06-25T11:18:40.376Z,45.83
2018-06-25T11:19:50.589Z,46.31
2018-06-25T11:21:01.040Z,46.41
2018-06-25T11:22:11.195Z,46.99
2018-06-25T11:23:21.115Z,46.41
2018-06-25T11:24:31.112Z,46.31
2018-06-25T11:25:41.297Z,45.64
2018-06-25T11:26:51.708Z,45.73
2018-06-25T11:28:03.004Z,46.6
2018-06-25T11:29:13.249Z,46.6
2018-06-25T11:30:23.439Z,46.24
2018-06-25T11:31:33.671Z,46.53
2018-06-25T11:32:43.861Z,46.53
2018-06-25T11:33:54.021Z,46.6
2018-06-25T11:35:04.190Z,46.99
2018-06-25T11:36:14.407Z,47.36
2018-06-25T11:37:24.659Z,47.94
2018-06-25T11:38:34.826Z,48.11
2018-06-25T11:39:45.035Z,48.97
2018-06-25T11:40:55.645Z,49.05
2018-06-25T11:42:05.921Z,49.34
2018-06-25T11:43:16.093Z,49.34
2018-06-25T11:44:26.345Z,49.7
2018-06-25T11:45:36.511Z,50.09
2018-06-25T11:46:46.971Z,50.57
2018-06-25T11:47:57.142Z,50.76
2018-06-25T11:49:07.121Z,51.06
2018-06-25T11:50:17.582Z,51.35
2018-06-25T11:51:27.694Z,51.35
2018-06-25T11:52:37.898Z,50.93
2018-06-25T11:53:48.111Z,51.13
2018-06-25T11:54:58.276Z,51.32
2018-06-25T11:56:08.490Z,50.84
2018-06-25T11:57:18.679Z,51.59
2018-06-25T11:58:29.011Z,51.78
2018-06-25T11:59:39.368Z,51.97
2018-06-25T12:00:49.289Z,52.45
2018-06-25T12:01:59.627Z,52.55
2018-06-25T12:03:10.605Z,53.33
2018-06-25T12:04:22.224Z,53.61
2018-06-25T12:05:32.402Z,53.81
2018-06-25T12:06:42.921Z,54.39
2018-06-25T12:07:53.170Z,54.39
2018-06-25T12:09:03.465Z,54.29
2018-06-25T12:10:13.645Z,54.19
2018-06-25T12:11:23.837Z,54.39
2018-06-25T12:12:34.051Z,54.49
2018-06-25T12:13:43.950Z,54.77
2018-06-25T12:14:54.011Z,54.58
2018-06-25T12:16:04.242Z,54.68
2018-06-25T12:17:14.453Z,54.39
2018-06-25T12:18:24.400Z,54.58
2018-06-25T12:19:34.561Z,54.29
2018-06-25T12:20:44.542Z,54.39
2018-06-25T12:21:54.701Z,54.1
2018-06-25T12:23:05.084Z,54.58
2018-06-25T12:24:15.852Z,54.19
2018-06-25T12:25:26.115Z,54.58
2018-06-25T12:26:36.315Z,54.87
2018-06-25T12:27:46.588Z,54.58
2018-06-25T12:28:56.965Z,54.87
2018-06-25T12:30:07.274Z,54.58
2018-06-25T12:31:17.852Z,55.45
2018-06-25T12:32:28.045Z,55.45
2018-06-25T12:33:38.226Z,55.45
2018-06-25T12:34:48.449Z,55.16
2018-06-25T12:35:58.850Z,55.07
2018-06-25T12:37:09.251Z,55.74
2018-06-25T12:38:19.625Z,55.74
2018-06-25T12:39:29.804Z,55.81
2018-06-25T12:40:39.991Z,55.9
2018-06-25T12:41:50.192Z,55.9
2018-06-25T12:43:00.421Z,56.1
2018-06-25T12:44:10.783Z,56
2018-06-25T12:45:20.967Z,56.39
2018-06-25T12:46:31.171Z,56.77
2018-06-25T12:47:40.876Z,57.16
2018-06-25T12:48:51.037Z,57.06
2018-06-25T12:50:01.248Z,56.87
2018-06-25T12:51:11.478Z,56.96
2018-06-25T12:52:21.675Z,57.26
2018-06-25T12:53:31.901Z,56.87
2018-06-25T12:54:42.172Z,56.96
2018-06-25T12:55:52.419Z,56.48
2018-06-25T12:57:02.514Z,56.77
2018-06-25T12:58:12.990Z,56.68
2018-06-25T12:59:23.205Z,56.61
2018-06-25T13:00:33.381Z,56.61
2018-06-25T13:01:43.844Z,56.03
2018-06-25T13:02:54.093Z,55.65
2018-06-25T13:04:04.063Z,55.65
2018-06-25T13:05:14.244Z,55.07
2018-06-25T13:06:24.439Z,55.55
2018-06-25T13:07:34.386Z,54.68
2018-06-25T13:08:44.846Z,55.29
2018-06-25T13:09:55.040Z,54.71
2018-06-25T13:11:05.232Z,55.09
2018-06-25T13:12:15.628Z,54.8
2018-06-25T13:13:25.826Z,53.86
2018-06-25T13:14:36.015Z,53.67
2018-06-25T13:15:46.181Z,54.05
2018-06-25T13:16:56.649Z,54.03
2018-06-25T13:18:06.826Z,53.35
2018-06-25T13:19:17.203Z,53.55
2018-06-25T13:20:27.523Z,53.74
2018-06-25T13:21:37.792Z,53.93
2018-06-25T13:22:48.229Z,54.41
2018-06-25T13:23:58.383Z,54.41
2018-06-25T13:25:08.403Z,53.55
2018-06-25T13:26:18.620Z,53.55
2018-06-25T13:27:28.848Z,53.55
2018-06-25T13:28:39.036Z,53.74
2018-06-25T13:29:49.429Z,54.13
2018-06-25T13:30:59.791Z,54.32
2018-06-25T13:32:10.427Z,54.61
2018-06-25T13:33:20.580Z,54.87
2018-06-25T13:34:30.757Z,54.87
2018-06-25T13:35:40.944Z,55.07
2018-06-25T13:36:51.181Z,54.87
2018-06-25T13:38:01.422Z,54.87
2018-06-25T13:39:11.629Z,55.29
2018-06-25T13:40:21.801Z,55.07
2018-06-25T13:41:32.114Z,55.45
2018-06-25T13:42:42.307Z,55.65
2018-06-25T13:43:52.488Z,55.45
2018-06-25T13:45:02.672Z,55.26
2018-06-25T13:46:12.863Z,55.74
2018-06-25T13:47:23.096Z,55.74
2018-06-25T13:48:33.307Z,55.55
2018-06-25T13:49:43.491Z,55.93
2018-06-25T13:50:53.770Z,55.93
2018-06-25T13:52:04.012Z,55.74
2018-06-25T13:53:14.200Z,55.83
2018-06-25T13:54:24.443Z,55.67
2018-06-25T13:55:34.726Z,55.57
2018-06-25T13:56:44.977Z,55.38
2018-06-25T13:57:55.147Z,54.9
2018-06-25T13:59:05.000Z,55.55
2018-06-25T14:00:15.197Z,55.26
2018-06-25T14:01:25.390Z,55.74
2018-06-25T14:02:35.552Z,56.41
2018-06-25T14:03:45.865Z,57.06
2018-06-25T14:04:56.312Z,57.74
2018-06-25T14:06:06.605Z,57.54
2018-06-25T14:07:16.865Z,58.51
2018-06-25T14:08:27.242Z,59.06
2018-06-25T14:09:37.462Z,58.48
2018-06-25T14:10:47.478Z,58.87
2018-06-25T14:11:57.722Z,59.35
2018-06-25T14:13:07.912Z,59.45
2018-06-25T14:14:18.142Z,58.68
2018-06-25T14:15:28.366Z,59.06
2018-06-25T14:16:38.978Z,58.77
2018-06-25T14:17:49.753Z,58.87
2018-06-25T14:18:59.952Z,58.77
2018-06-25T14:20:10.120Z,58.77
2018-06-25T14:21:20.371Z,58.29
2018-06-25T14:22:30.725Z,58.87
2018-06-25T14:23:40.991Z,58.87
2018-06-25T14:24:51.231Z,58.77
2018-06-25T14:26:01.142Z,58.77
2018-06-25T14:27:11.338Z,58.77
2018-06-25T14:28:21.705Z,59.35
2018-06-25T14:29:32.061Z,59.25
2018-06-25T14:30:42.312Z,59.74
2018-06-25T14:31:52.519Z,59.45
2018-06-25T14:33:02.727Z,59.64
2018-06-25T14:34:13.010Z,59.9
2018-06-25T14:35:23.248Z,60.38
2018-06-25T14:36:33.456Z,60.28
2018-06-25T14:37:43.632Z,60.68
2018-06-25T14:38:53.876Z,60.58
2018-06-25T14:40:04.123Z,60.96
2018-06-25T14:41:14.456Z,61.74
2018-06-25T14:42:24.637Z,62.02
2018-06-25T14:43:35.041Z,62.31
2018-06-25T14:44:45.380Z,61.93
2018-06-25T14:45:55.702Z,62.12
2018-06-25T14:47:05.864Z,62.41
2018-06-25T14:48:16.140Z,62.51
2018-06-25T14:49:26.009Z,62.76
2018-06-25T14:50:36.178Z,62.79
2018-06-25T14:51:46.188Z,63.06
2018-06-25T14:52:56.606Z,63.34
2018-06-25T14:54:06.814Z,63.63
2018-06-25T14:55:17.044Z,63.6
2018-06-25T14:56:27.189Z,64.56
2018-06-25T14:57:37.481Z,64.31
2018-06-25T14:58:47.656Z,64.56
2018-06-25T14:59:57.861Z,64.56
2018-06-25T15:01:08.191Z,64.89
2018-06-25T15:02:18.372Z,64.37
2018-06-25T15:03:28.593Z,64.86
2018-06-25T15:04:38.837Z,64.95
2018-06-25T15:05:49.004Z,64.37
2018-06-25T15:06:59.262Z,64.47
2018-06-25T15:08:09.123Z,65.14